createdAt,value
2022-11-05T00:00:59.469Z,7.76
2022-11-05T00:05:19.695Z,7.75
2022-11-05T00:09:30.331Z,7.73
2022-11-05T00:13:50.432Z,7.70
2022-11-05T00:17:52.084Z,7.67
2022-11-05T00:22:12.431Z,7.64
2022-11-05T00:26:14.461Z,7.62
2022-11-05T00:30:19.560Z,7.62
2022-11-05T00:34:21.525Z,7.61
2022-11-05T00:38:23.300Z,7.62
2022-11-05T00:42:43.570Z,7.61
2022-11-05T00:46:45.257Z,7.62
2022-11-05T00:50:46.978Z,7.59
2022-11-05T00:54:48.676Z,7.58
2022-11-05T00:58:50.373Z,7.59
2022-11-05T01:02:52.539Z,7.64
2022-11-05T01:06:55.216Z,7.70
2022-11-05T01:10:58.568Z,7.72
2022-11-05T01:15:00.680Z,7.83
2022-11-05T01:19:04.607Z,7.98
2022-11-05T01:23:12.100Z,8.02
2022-11-05T01:27:15.312Z,8.02
2022-11-05T01:31:16.936Z,8.04
2022-11-05T01:35:18.944Z,8.00
2022-11-05T01:39:20.598Z,7.96
2022-11-05T01:43:23.505Z,7.87
2022-11-05T01:47:47.837Z,7.79
2022-11-05T01:51:51.376Z,7.71
2022-11-05T01:55:56.096Z,7.62
2022-11-05T01:59:59.932Z,7.56
2022-11-05T02:04:08.981Z,7.48
2022-11-05T02:08:18.949Z,7.43
2022-11-05T02:12:21.877Z,7.39
2022-11-05T02:16:28.929Z,7.38
2022-11-05T02:20:52.216Z,7.37
2022-11-05T02:25:03.355Z,7.34
2022-11-05T02:29:54.499Z,7.34
2022-11-05T02:34:11.644Z,7.44
2022-11-05T02:38:18.939Z,7.58
2022-11-05T02:42:42.562Z,7.68
2022-11-05T02:46:52.942Z,7.72
2022-11-05T02:51:03.041Z,7.75
2022-11-05T02:55:38.663Z,7.77
2022-11-05T02:59:40.309Z,7.77
2022-11-05T03:03:52.973Z,7.77
2022-11-05T03:08:06.860Z,7.78
2022-11-05T03:12:14.582Z,7.84
2022-11-05T03:16:22.708Z,7.86
2022-11-05T03:20:41.463Z,7.88
2022-11-05T03:24:46.575Z,7.89
2022-11-05T03:28:54.703Z,7.93
2022-11-05T03:33:03.691Z,8.02
2022-11-05T03:37:06.789Z,8.12
2022-11-05T03:41:14.171Z,8.19
2022-11-05T03:45:21.361Z,8.25
2022-11-05T03:49:28.789Z,8.30
2022-11-05T03:53:36.825Z,8.27
2022-11-05T03:57:44.240Z,8.25
2022-11-05T04:01:46.047Z,8.23
2022-11-05T04:06:07.998Z,8.21
2022-11-05T04:10:33.217Z,8.17
2022-11-05T04:14:34.924Z,8.16
2022-11-05T04:18:36.953Z,8.16
2022-11-05T04:22:56.876Z,8.12
2022-11-05T04:26:59.301Z,8.07
2022-11-05T04:31:00.957Z,7.99
2022-11-05T04:35:02.691Z,7.96
2022-11-05T04:39:04.366Z,7.97
2022-11-05T04:43:13.616Z,7.95
2022-11-05T04:47:16.650Z,7.91
2022-11-05T04:51:18.329Z,7.91
2022-11-05T04:55:20.031Z,7.89
2022-11-05T04:59:21.712Z,7.87
2022-11-05T05:03:23.824Z,7.89
2022-11-05T05:07:26.021Z,7.92
2022-11-05T05:11:27.634Z,7.99
2022-11-05T05:15:29.362Z,8.01
2022-11-05T05:19:51.001Z,8.04
2022-11-05T05:23:52.690Z,8.05
2022-11-05T05:27:57.552Z,8.05
2022-11-05T05:31:59.288Z,8.02
2022-11-05T12:29:12.156Z,10.83
2022-11-05T12:33:05.442Z,10.98
2022-11-05T12:37:45.048Z,11.06
2022-11-05T12:41:53.905Z,11.12
2022-11-05T12:46:01.576Z,11.14
2022-11-05T12:50:28.622Z,11.20
2022-11-05T12:54:33.288Z,11.25
2022-11-05T12:58:39.663Z,11.25
2022-11-05T13:03:05.151Z,11.26
2022-11-05T13:07:11.797Z,11.28
2022-11-05T13:11:26.416Z,11.27
2022-11-05T13:15:34.444Z,11.27
2022-11-05T13:19:41.898Z,11.25
2022-11-05T13:24:01.626Z,11.24
2022-11-05T13:28:33.013Z,11.22
2022-11-05T13:32:39.393Z,11.19
2022-11-05T13:37:21.125Z,11.19
2022-11-05T13:41:46.797Z,11.13
2022-11-05T13:46:06.551Z,11.11
2022-11-05T13:50:26.680Z,11.07
2022-11-05T13:54:52.689Z,11.00
2022-11-05T13:59:10.349Z,10.95
2022-11-05T14:03:20.624Z,10.88
2022-11-05T14:07:29.295Z,10.84
2022-11-05T14:11:37.471Z,10.78
2022-11-05T14:15:39.213Z,10.76
2022-11-05T14:20:02.793Z,10.75
2022-11-05T14:24:22.881Z,10.75
2022-11-05T14:28:36.581Z,10.72
2022-11-05T14:32:45.780Z,10.69
2022-11-05T14:37:12.661Z,10.65
2022-11-05T14:41:14.640Z,10.61
2022-11-05T14:45:32.770Z,10.58
2022-11-05T14:49:53.220Z,10.55
2022-11-05T14:54:00.435Z,10.53
2022-11-05T14:58:05.954Z,10.52
2022-11-05T15:02:15.756Z,10.51
2022-11-05T15:06:35.467Z,10.50
2022-11-05T15:10:37.712Z,10.47
2022-11-05T15:14:58.928Z,10.44
2022-11-05T15:19:01.391Z,10.43
2022-11-05T15:23:05.378Z,10.42
2022-11-05T15:27:15.829Z,10.41
2022-11-05T15:31:37.701Z,10.38
2022-11-05T15:35:41.508Z,10.37
2022-11-05T15:39:45.727Z,10.36
2022-11-05T15:43:49.409Z,10.36
2022-11-05T15:47:51.148Z,10.36
2022-11-05T15:51:52.876Z,10.34
2022-11-05T15:55:59.086Z,10.31
2022-11-05T16:00:08.395Z,10.30
2022-11-05T16:04:23.690Z,10.26
2022-11-05T16:08:28.168Z,10.26
2022-11-05T16:12:32.657Z,10.22
2022-11-05T16:16:34.503Z,10.19
2022-11-05T16:20:38.457Z,10.17
2022-11-05T16:24:42.814Z,10.14
2022-11-05T16:28:50.501Z,10.11
2022-11-05T16:32:52.567Z,10.08
2022-11-05T16:36:56.715Z,10.07
2022-11-05T16:41:00.379Z,10.07
2022-11-05T16:45:02.064Z,10.04
2022-11-05T16:49:04.260Z,10.02
2022-11-05T16:53:06.073Z,10.01
2022-11-05T16:57:23.520Z,10.00
2022-11-05T17:01:25.442Z,10.03
2022-11-05T17:05:29.804Z,10.04
2022-11-05T17:09:32.007Z,10.04
2022-11-05T17:13:34.114Z,10.04
2022-11-05T17:17:35.773Z,10.04
2022-11-05T17:21:37.449Z,10.05
2022-11-05T17:25:40.843Z,10.05
2022-11-05T17:29:42.519Z,10.04
2022-11-05T17:33:44.244Z,10.04
2022-11-05T17:37:46.183Z,10.02
2022-11-05T17:41:48.036Z,10.03
2022-11-05T17:45:52.080Z,10.01
2022-11-05T17:49:53.809Z,10.01
2022-11-05T17:53:55.841Z,10.01
2022-11-05T17:57:57.675Z,10.01
2022-11-05T18:01:59.585Z,10.02
2022-11-05T18:06:06.407Z,10.02
2022-11-05T18:10:08.499Z,10.03
2022-11-05T18:14:10.775Z,10.02
2022-11-05T18:18:12.716Z,10.01
2022-11-05T18:22:16.372Z,10.01
2022-11-05T18:26:18.436Z,10.00
2022-11-05T18:30:20.191Z,10.00
2022-11-05T18:34:21.846Z,9.98
2022-11-05T18:38:23.562Z,9.98
2022-11-05T18:42:25.515Z,9.98
2022-11-05T18:46:56.475Z,9.98
2022-11-05T18:50:50.893Z,9.98
2022-11-05T18:54:52.609Z,9.99
2022-11-05T18:59:14.822Z,10.00
2022-11-05T19:03:16.291Z,9.99
2022-11-05T19:07:19.266Z,9.99
2022-11-05T19:11:23.164Z,10.00
2022-11-05T19:15:24.821Z,10.01
2022-11-05T19:19:27.422Z,10.02
2022-11-05T19:23:29.104Z,10.04
2022-11-05T19:27:30.801Z,10.04
2022-11-05T19:31:32.550Z,10.06
2022-11-05T19:35:39.998Z,10.07
2022-11-05T19:39:43.348Z,10.08
2022-11-05T19:43:45.728Z,10.08
2022-11-05T19:47:47.492Z,10.09
2022-11-05T19:51:49.193Z,10.08
2022-11-05T19:55:50.835Z,10.07
2022-11-05T19:59:52.495Z,10.07
2022-11-05T20:03:56.252Z,10.06
2022-11-05T20:07:57.988Z,10.04
2022-11-05T20:11:59.863Z,10.03
2022-11-05T20:16:01.767Z,10.02
2022-11-05T20:20:04.290Z,10.02
2022-11-05T20:24:06.333Z,10.02
2022-11-05T20:28:08.153Z,10.01
2022-11-05T20:32:12.553Z,10.00
2022-11-05T20:36:16.762Z,9.97
2022-11-05T20:40:18.508Z,9.93
2022-11-05T20:44:20.244Z,9.90
2022-11-05T20:48:21.960Z,9.88
2022-11-05T20:52:23.635Z,9.88
2022-11-05T20:56:28.042Z,9.88
2022-11-05T21:00:29.785Z,9.92
2022-11-05T21:04:31.585Z,9.94
2022-11-05T21:08:34.043Z,9.98
2022-11-05T21:12:35.790Z,9.99
2022-11-05T21:16:37.468Z,9.98
2022-11-05T21:20:40.123Z,10.00
2022-11-05T21:24:42.672Z,10.01
2022-11-05T21:28:44.413Z,10.03
2022-11-05T21:32:46.034Z,10.04
2022-11-05T21:36:47.736Z,10.04
2022-11-05T21:40:49.820Z,10.03
2022-11-05T21:44:53.986Z,10.05
2022-11-05T21:48:59.507Z,10.05
2022-11-05T21:53:19.804Z,10.05
2022-11-05T21:57:40.218Z,10.06
2022-11-05T22:01:41.959Z,10.06
2022-11-05T22:05:43.778Z,10.06
2022-11-05T22:09:45.826Z,10.06
2022-11-05T22:13:47.483Z,10.06
2022-11-05T22:17:52.302Z,10.07
2022-11-05T22:21:54.027Z,10.08
2022-11-05T22:26:02.856Z,10.07
2022-11-05T22:30:05.203Z,10.08
2022-11-05T22:34:07.668Z,10.07
2022-11-05T22:38:09.540Z,10.06
2022-11-05T22:42:11.481Z,10.06
2022-11-05T22:46:22.384Z,10.07
2022-11-05T22:50:24.265Z,10.08
2022-11-05T22:54:26.074Z,10.08
2022-11-05T22:58:27.773Z,10.06
2022-11-05T23:02:29.533Z,10.04
2022-11-05T23:06:51.862Z,10.05
2022-11-05T23:11:12.184Z,10.05
2022-11-05T23:15:33.870Z,10.05
2022-11-05T23:19:54.214Z,10.05
2022-11-05T23:24:04.908Z,10.07
2022-11-05T23:28:10.066Z,10.06
2022-11-05T23:32:24.039Z,10.06
2022-11-05T23:36:44.302Z,10.08
2022-11-05T23:41:04.665Z,10.08
2022-11-05T23:45:25.466Z,10.09
2022-11-05T23:49:27.342Z,10.11
2022-11-05T23:53:31.268Z,10.11
2022-11-05T23:57:43.248Z,10.12
